sensor_id;sensor_type;location;lat;lon;timestamp;P1;durP1;ratioP1;P2;durP2;ratioP2
46719;SDS011;32452;51.382;-0.002;2022-09-01T00:00:20;9.52;;;2.03;;
46719;SDS011;32452;51.382;-0.002;2022-09-01T00:03:07;8.02;;;1.45;;
46719;SDS011;32452;51.382;-0.002;2022-09-01T00:05:56;11.25;;;2.20;;
46719;SDS011;32452;51.382;-0.002;2022-09-01T00:08:41;12.10;;;1.92;;
46719;SDS011;32452;51.382;-0.002;2022-09-01T00:11:27;9.95;;;1.80;;
46719;SDS011;32452;51.382;-0.002;2022-09-01T00:14:14;10.23;;;1.75;;
46719;SDS011;32452;51.382;-0.002;2022-09-01T00:17:14;8.20;;;1.73;;
46719;SDS011;32452;51.382;-0.002;2022-09-01T00:19:59;9.15;;;1.60;;
46719;SDS011;32452;51.382;-0.002;2022-09-01T00:22:45;7.20;;;1.85;;
46719;SDS011;32452;51.382;-0.002;2022-09-01T00:25:30;6.35;;;1.60;;
46719;SDS011;32452;51.382;-0.002;2022-09-01T00:28:16;8.60;;;3.10;;
46719;SDS011;32452;51.382;-0.002;2022-09-01T00:31:02;10.52;;;2.17;;
46719;SDS011;32452;51.382;-0.002;2022-09-01T00:33:50;11.52;;;1.98;;
46719;SDS011;32452;51.382;-0.002;2022-09-01T00:36:36;6.70;;;1.52;;
46719;SDS011;32452;51.382;-0.002;2022-09-01T00:39:22;8.27;;;1.92;;
46719;SDS011;32452;51.382;-0.002;2022-09-01T00:42:07;10.60;;;2.00;;
46719;SDS011;32452;51.382;-0.002;2022-09-01T00:44:54;11.95;;;2.20;;
46719;SDS011;32452;51.382;-0.002;2022-09-01T00:47:39;7.00;;;1.80;;
46719;SDS011;32452;51.382;-0.002;2022-09-01T00:50:25;12.40;;;2.00;;
46719;SDS011;32452;51.382;-0.002;2022-09-01T00:53:11;7.28;;;1.67;;
46719;SDS011;32452;51.382;-0.002;2022-09-01T00:55:58;10.00;;;2.47;;
46719;SDS011;32452;51.382;-0.002;2022-09-01T00:58:47;5.63;;;1.65;;
46719;SDS011;32452;51.382;-0.002;2022-09-01T01:01:33;7.93;;;1.75;;
46719;SDS011;32452;51.382;-0.002;2022-09-01T01:04:20;8.48;;;1.70;;
46719;SDS011;32452;51.382;-0.002;2022-09-01T01:07:06;9.80;;;1.90;;
46719;SDS011;32452;51.382;-0.002;2022-09-01T01:09:53;9.52;;;1.90;;
46719;SDS011;32452;51.382;-0.002;2022-09-01T01:12:39;6.55;;;1.70;;
46719;SDS011;32452;51.382;-0.002;2022-09-01T01:15:24;8.90;;;1.60;;
46719;SDS011;32452;51.382;-0.002;2022-09-01T01:18:10;12.32;;;2.33;;
46719;SDS011;32452;51.382;-0.002;2022-09-01T01:21:06;8.18;;;2.22;;
46719;SDS011;32452;51.382;-0.002;2022-09-01T01:24:20;6.20;;;2.00;;
46719;SDS011;32452;51.382;-0.002;2022-09-01T01:27:08;8.05;;;1.75;;
46719;SDS011;32452;51.382;-0.002;2022-09-01T01:29:54;8.88;;;2.30;;
46719;SDS011;32452;51.382;-0.002;2022-09-01T01:32:39;10.55;;;1.77;;
46719;SDS011;32452;51.382;-0.002;2022-09-01T01:35:27;10.50;;;1.70;;
46719;SDS011;32452;51.382;-0.002;2022-09-01T01:38:13;9.05;;;2.05;;
46719;SDS011;32452;51.382;-0.002;2022-09-01T01:41:00;6.80;;;1.52;;
46719;SDS011;32452;51.382;-0.002;2022-09-01T01:43:46;9.65;;;2.55;;
46719;SDS011;32452;51.382;-0.002;2022-09-01T01:46:32;9.23;;;1.67;;
46719;SDS011;32452;51.382;-0.002;2022-09-01T01:49:20;10.98;;;2.20;;
46719;SDS011;32452;51.382;-0.002;2022-09-01T01:52:10;12.63;;;2.33;;
46719;SDS011;32452;51.382;-0.002;2022-09-01T01:55:01;8.45;;;1.75;;
46719;SDS011;32452;51.382;-0.002;2022-09-01T01:57:49;8.25;;;2.20;;
46719;SDS011;32452;51.382;-0.002;2022-09-01T02:00:34;8.18;;;1.70;;
46719;SDS011;32452;51.382;-0.002;2022-09-01T02:03:22;9.65;;;1.85;;
46719;SDS011;32452;51.382;-0.002;2022-09-01T02:06:09;8.90;;;1.52;;
46719;SDS011;32452;51.382;-0.002;2022-09-01T02:08:56;8.15;;;2.20;;
46719;SDS011;32452;51.382;-0.002;2022-09-01T02:11:42;9.98;;;2.17;;
46719;SDS011;32452;51.382;-0.002;2022-09-01T02:14:29;5.75;;;1.73;;
46719;SDS011;32452;51.382;-0.002;2022-09-01T02:17:15;10.27;;;2.20;;
46719;SDS011;32452;51.382;-0.002;2022-09-01T02:20:00;12.57;;;1.98;;
46719;SDS011;32452;51.382;-0.002;2022-09-01T02:22:47;8.80;;;1.90;;
46719;SDS011;32452;51.382;-0.002;2022-09-01T02:25:37;10.68;;;2.15;;
46719;SDS011;32452;51.382;-0.002;2022-09-01T02:28:48;8.68;;;1.85;;
46719;SDS011;32452;51.382;-0.002;2022-09-01T02:31:39;11.88;;;1.98;;
46719;SDS011;32452;51.382;-0.002;2022-09-01T02:34:24;13.23;;;1.92;;
46719;SDS011;32452;51.382;-0.002;2022-09-01T02:37:12;7.68;;;2.25;;
46719;SDS011;32452;51.382;-0.002;2022-09-01T02:39:59;14.32;;;2.75;;
46719;SDS011;32452;51.382;-0.002;2022-09-01T02:42:46;9.18;;;2.03;;
46719;SDS011;32452;51.382;-0.002;2022-09-01T02:45:32;7.00;;;2.15;;
46719;SDS011;32452;51.382;-0.002;2022-09-01T02:48:19;11.82;;;1.95;;
46719;SDS011;32452;51.382;-0.002;2022-09-01T02:51:09;6.40;;;2.00;;
46719;SDS011;32452;51.382;-0.002;2022-09-01T02:53:59;12.27;;;2.13;;
46719;SDS011;32452;51.382;-0.002;2022-09-01T02:56:45;10.40;;;2.05;;
46719;SDS011;32452;51.382;-0.002;2022-09-01T02:59:32;13.70;;;2.28;;
46719;SDS011;32452;51.382;-0.002;2022-09-01T03:02:18;11.25;;;2.03;;
46719;SDS011;32452;51.382;-0.002;2022-09-01T03:05:03;10.18;;;2.22;;
46719;SDS011;32452;51.382;-0.002;2022-09-01T03:07:50;13.30;;;1.80;;
46719;SDS011;32452;51.382;-0.002;2022-09-01T03:10:42;8.65;;;1.77;;
46719;SDS011;32452;51.382;-0.002;2022-09-01T03:13:30;11.32;;;2.17;;
46719;SDS011;32452;51.382;-0.002;2022-09-01T03:16:15;10.82;;;2.15;;
46719;SDS011;32452;51.382;-0.002;2022-09-01T03:19:01;13.13;;;2.33;;
46719;SDS011;32452;51.382;-0.002;2022-09-01T03:21:47;18.35;;;5.63;;
46719;SDS011;32452;51.382;-0.002;2022-09-01T03:24:33;10.13;;;2.13;;
46719;SDS011;32452;51.382;-0.002;2022-09-01T03:27:18;10.65;;;2.13;;
46719;SDS011;32452;51.382;-0.002;2022-09-01T03:30:04;9.82;;;2.30;;
46719;SDS011;32452;51.382;-0.002;2022-09-01T03:32:50;6.72;;;2.50;;
46719;SDS011;32452;51.382;-0.002;2022-09-01T03:35:35;10.15;;;2.70;;
46719;SDS011;32452;51.382;-0.002;2022-09-01T03:38:21;10.73;;;2.40;;
46719;SDS011;32452;51.382;-0.002;2022-09-01T03:41:08;13.85;;;2.47;;
46719;SDS011;32452;51.382;-0.002;2022-09-01T03:43:53;9.55;;;2.05;;
46719;SDS011;32452;51.382;-0.002;2022-09-01T03:46:42;12.15;;;2.08;;
46719;SDS011;32452;51.382;-0.002;2022-09-01T03:49:28;11.15;;;2.10;;
46719;SDS011;32452;51.382;-0.002;2022-09-01T03:52:13;8.38;;;2.22;;
46719;SDS011;32452;51.382;-0.002;2022-09-01T03:55:00;11.60;;;2.30;;
46719;SDS011;32452;51.382;-0.002;2022-09-01T03:57:46;11.60;;;2.22;;
46719;SDS011;32452;51.382;-0.002;2022-09-01T04:00:33;10.73;;;2.85;;
46719;SDS011;32452;51.382;-0.002;2022-09-01T04:03:23;11.52;;;2.10;;
46719;SDS011;32452;51.382;-0.002;2022-09-01T04:06:13;9.15;;;2.28;;
46719;SDS011;32452;51.382;-0.002;2022-09-01T04:08:59;8.93;;;2.38;;
46719;SDS011;32452;51.382;-0.002;2022-09-01T04:11:46;8.63;;;2.20;;
46719;SDS011;32452;51.382;-0.002;2022-09-01T04:14:33;15.43;;;3.05;;
46719;SDS011;32452;51.382;-0.002;2022-09-01T04:17:18;17.83;;;3.38;;
46719;SDS011;32452;51.382;-0.002;2022-09-01T04:20:34;13.35;;;2.50;;
46719;SDS011;32452;51.382;-0.002;2022-09-01T04:23:32;14.32;;;2.67;;
46719;SDS011;32452;51.382;-0.002;2022-09-01T04:26:20;11.88;;;2.47;;
46719;SDS011;32452;51.382;-0.002;2022-09-01T04:29:07;12.57;;;3.65;;
46719;SDS011;32452;51.382;-0.002;2022-09-01T04:31:57;12.00;;;2.40;;
46719;SDS011;32452;51.382;-0.002;2022-09-01T04:34:49;13.63;;;2.20;;
46719;SDS011;32452;51.382;-0.002;2022-09-01T04:37:34;15.73;;;2.85;;
46719;SDS011;32452;51.382;-0.002;2022-09-01T04:40:20;11.35;;;3.45;;
46719;SDS011;32452;51.382;-0.002;2022-09-01T04:43:11;11.20;;;2.88;;
46719;SDS011;32452;51.382;-0.002;2022-09-01T04:45:56;9.80;;;2.63;;
46719;SDS011;32452;51.382;-0.002;2022-09-01T04:48:43;12.80;;;3.10;;
46719;SDS011;32452;51.382;-0.002;2022-09-01T04:51:31;10.45;;;2.20;;
46719;SDS011;32452;51.382;-0.002;2022-09-01T04:54:18;10.00;;;2.38;;
46719;SDS011;32452;51.382;-0.002;2022-09-01T04:57:05;11.38;;;2.65;;
46719;SDS011;32452;51.382;-0.002;2022-09-01T04:59:50;12.63;;;2.63;;
46719;SDS011;32452;51.382;-0.002;2022-09-01T05:02:36;11.25;;;2.03;;
46719;SDS011;32452;51.382;-0.002;2022-09-01T05:05:23;13.60;;;2.90;;
46719;SDS011;32452;51.382;-0.002;2022-09-01T05:08:10;11.32;;;2.50;;
46719;SDS011;32452;51.382;-0.002;2022-09-01T05:11:06;17.10;;;3.05;;
46719;SDS011;32452;51.382;-0.002;2022-09-01T05:13:53;11.45;;;2.47;;
46719;SDS011;32452;51.382;-0.002;2022-09-01T05:16:41;10.98;;;2.45;;
46719;SDS011;32452;51.382;-0.002;2022-09-01T05:19:27;11.85;;;2.40;;
46719;SDS011;32452;51.382;-0.002;2022-09-01T05:22:13;15.82;;;3.97;;
46719;SDS011;32452;51.382;-0.002;2022-09-01T05:25:01;16.83;;;2.75;;
46719;SDS011;32452;51.382;-0.002;2022-09-01T05:27:55;7.90;;;2.22;;
46719;SDS011;32452;51.382;-0.002;2022-09-01T05:30:41;12.73;;;2.40;;
46719;SDS011;32452;51.382;-0.002;2022-09-01T05:33:27;10.77;;;2.33;;
46719;SDS011;32452;51.382;-0.002;2022-09-01T05:36:13;10.77;;;2.80;;
46719;SDS011;32452;51.382;-0.002;2022-09-01T05:39:02;10.80;;;2.28;;
46719;SDS011;32452;51.382;-0.002;2022-09-01T05:41:49;11.27;;;2.80;;
46719;SDS011;32452;51.382;-0.002;2022-09-01T05:44:38;11.95;;;2.30;;
46719;SDS011;32452;51.382;-0.002;2022-09-01T05:47:29;7.57;;;2.00;;
46719;SDS011;32452;51.382;-0.002;2022-09-01T05:50:14;14.95;;;2.60;;
46719;SDS011;32452;51.382;-0.002;2022-09-01T05:53:03;14.68;;;2.20;;
46719;SDS011;32452;51.382;-0.002;2022-09-01T05:55:56;12.20;;;3.10;;
46719;SDS011;32452;51.382;-0.002;2022-09-01T05:58:42;17.50;;;2.67;;
46719;SDS011;32452;51.382;-0.002;2022-09-01T06:01:49;11.32;;;2.30;;
46719;SDS011;32452;51.382;-0.002;2022-09-01T06:04:36;16.10;;;2.45;;
46719;SDS011;32452;51.382;-0.002;2022-09-01T06:07:27;10.82;;;2.80;;
46719;SDS011;32452;51.382;-0.002;2022-09-01T06:10:13;13.57;;;2.75;;
46719;SDS011;32452;51.382;-0.002;2022-09-01T06:13:00;12.18;;;2.83;;
46719;SDS011;32452;51.382;-0.002;2022-09-01T06:15:47;12.48;;;2.20;;
46719;SDS011;32452;51.382;-0.002;2022-09-01T06:18:34;12.15;;;2.67;;
46719;SDS011;32452;51.382;-0.002;2022-09-01T06:21:20;9.02;;;2.53;;
46719;SDS011;32452;51.382;-0.002;2022-09-01T06:24:08;12.68;;;2.85;;
46719;SDS011;32452;51.382;-0.002;2022-09-01T06:26:53;8.25;;;2.60;;
46719;SDS011;32452;51.382;-0.002;2022-09-01T06:29:39;10.95;;;2.45;;
46719;SDS011;32452;51.382;-0.002;2022-09-01T06:32:26;8.63;;;2.15;;
46719;SDS011;32452;51.382;-0.002;2022-09-01T06:35:12;15.38;;;2.33;;
46719;SDS011;32452;51.382;-0.002;2022-09-01T06:37:59;15.73;;;2.80;;
46719;SDS011;32452;51.382;-0.002;2022-09-01T06:40:45;12.60;;;2.15;;
46719;SDS011;32452;51.382;-0.002;2022-09-01T06:43:35;9.10;;;2.22;;
46719;SDS011;32452;51.382;-0.002;2022-09-01T06:46:21;11.23;;;2.20;;
46719;SDS011;32452;51.382;-0.002;2022-09-01T06:49:07;9.10;;;2.08;;
46719;SDS011;32452;51.382;-0.002;2022-09-01T06:51:55;10.95;;;2.20;;
46719;SDS011;32452;51.382;-0.002;2022-09-01T06:54:41;13.55;;;2.63;;
46719;SDS011;32452;51.382;-0.002;2022-09-01T06:57:28;11.98;;;2.90;;
46719;SDS011;32452;51.382;-0.002;2022-09-01T07:00:35;7.53;;;2.47;;
46719;SDS011;32452;51.382;-0.002;2022-09-01T07:03:26;10.80;;;2.05;;
46719;SDS011;32452;51.382;-0.002;2022-09-01T07:06:11;12.30;;;2.25;;
46719;SDS011;32452;51.382;-0.002;2022-09-01T07:09:18;7.75;;;1.98;;
46719;SDS011;32452;51.382;-0.002;2022-09-01T07:12:22;12.95;;;2.92;;
46719;SDS011;32452;51.382;-0.002;2022-09-01T07:15:10;9.13;;;1.95;;
46719;SDS011;32452;51.382;-0.002;2022-09-01T07:18:21;9.25;;;2.70;;
46719;SDS011;32452;51.382;-0.002;2022-09-01T07:21:08;8.43;;;1.80;;
46719;SDS011;32452;51.382;-0.002;2022-09-01T07:24:14;10.05;;;2.03;;
46719;SDS011;32452;51.382;-0.002;2022-09-01T07:27:02;8.45;;;2.72;;
46719;SDS011;32452;51.382;-0.002;2022-09-01T07:29:54;11.93;;;2.25;;
46719;SDS011;32452;51.382;-0.002;2022-09-01T07:32:41;14.57;;;3.95;;
46719;SDS011;32452;51.382;-0.002;2022-09-01T07:35:49;9.57;;;2.55;;
46719;SDS011;32452;51.382;-0.002;2022-09-01T07:38:59;10.40;;;2.53;;
46719;SDS011;32452;51.382;-0.002;2022-09-01T07:42:05;10.07;;;2.22;;
46719;SDS011;32452;51.382;-0.002;2022-09-01T07:45:15;14.45;;;2.88;;
46719;SDS011;32452;51.382;-0.002;2022-09-01T07:48:12;6.90;;;2.00;;
46719;SDS011;32452;51.382;-0.002;2022-09-01T07:51:19;10.50;;;2.15;;
46719;SDS011;32452;51.382;-0.002;2022-09-01T07:57:09;6.82;;;1.80;;
46719;SDS011;32452;51.382;-0.002;2022-09-01T07:59:54;15.10;;;3.00;;
46719;SDS011;32452;51.382;-0.002;2022-09-01T08:02:41;10.68;;;2.47;;
46719;SDS011;32452;51.382;-0.002;2022-09-01T08:05:31;11.13;;;2.08;;
46719;SDS011;32452;51.382;-0.002;2022-09-01T08:08:17;10.10;;;2.35;;
46719;SDS011;32452;51.382;-0.002;2022-09-01T08:11:04;8.18;;;2.08;;
46719;SDS011;32452;51.382;-0.002;2022-09-01T08:13:51;10.50;;;2.58;;
46719;SDS011;32452;51.382;-0.002;2022-09-01T08:16:38;10.15;;;2.42;;
46719;SDS011;32452;51.382;-0.002;2022-09-01T08:19:36;9.85;;;2.03;;
46719;SDS011;32452;51.382;-0.002;2022-09-01T08:22:22;11.73;;;2.15;;
46719;SDS011;32452;51.382;-0.002;2022-09-01T08:25:09;11.10;;;3.08;;
46719;SDS011;32452;51.382;-0.002;2022-09-01T08:27:55;12.45;;;2.60;;
46719;SDS011;32452;51.382;-0.002;2022-09-01T08:30:45;12.48;;;2.42;;
46719;SDS011;32452;51.382;-0.002;2022-09-01T08:33:37;15.25;;;2.58;;
46719;SDS011;32452;51.382;-0.002;2022-09-01T08:36:23;8.82;;;1.90;;
46719;SDS011;32452;51.382;-0.002;2022-09-01T08:39:10;10.65;;;2.13;;
46719;SDS011;32452;51.382;-0.002;2022-09-01T08:42:03;10.30;;;1.98;;
46719;SDS011;32452;51.382;-0.002;2022-09-01T08:45:04;9.02;;;2.83;;
46719;SDS011;32452;51.382;-0.002;2022-09-01T08:48:14;8.05;;;1.92;;
46719;SDS011;32452;51.382;-0.002;2022-09-01T08:51:31;10.70;;;2.05;;
46719;SDS011;32452;51.382;-0.002;2022-09-01T08:57:33;10.73;;;2.28;;
46719;SDS011;32452;51.382;-0.002;2022-09-01T09:00:22;15.68;;;2.53;;
46719;SDS011;32452;51.382;-0.002;2022-09-01T09:06:21;15.52;;;2.72;;
46719;SDS011;32452;51.382;-0.002;2022-09-01T09:09:11;13.95;;;2.22;;
46719;SDS011;32452;51.382;-0.002;2022-09-01T09:12:16;8.13;;;2.10;;
46719;SDS011;32452;51.382;-0.002;2022-09-01T09:15:16;11.82;;;2.20;;
46719;SDS011;32452;51.382;-0.002;2022-09-01T09:18:15;9.27;;;2.13;;
46719;SDS011;32452;51.382;-0.002;2022-09-01T09:21:26;11.50;;;2.25;;
46719;SDS011;32452;51.382;-0.002;2022-09-01T09:24:31;9.95;;;2.28;;
46719;SDS011;32452;51.382;-0.002;2022-09-01T09:33:31;8.77;;;2.13;;
46719;SDS011;32452;51.382;-0.002;2022-09-01T09:36:35;11.35;;;2.45;;
46719;SDS011;32452;51.382;-0.002;2022-09-01T09:39:21;10.95;;;3.15;;
46719;SDS011;32452;51.382;-0.002;2022-09-01T09:42:09;11.65;;;2.20;;
46719;SDS011;32452;51.382;-0.002;2022-09-01T09:44:59;9.30;;;1.87;;
46719;SDS011;32452;51.382;-0.002;2022-09-01T09:47:44;16.63;;;2.65;;
46719;SDS011;32452;51.382;-0.002;2022-09-01T09:50:31;9.30;;;2.20;;
46719;SDS011;32452;51.382;-0.002;2022-09-01T09:56:17;7.70;;;1.90;;
46719;SDS011;32452;51.382;-0.002;2022-09-01T09:59:20;9.45;;;1.67;;
46719;SDS011;32452;51.382;-0.002;2022-09-01T10:02:37;11.52;;;1.88;;
46719;SDS011;32452;51.382;-0.002;2022-09-01T10:08:13;7.25;;;1.65;;
46719;SDS011;32452;51.382;-0.002;2022-09-01T10:11:27;13.25;;;2.05;;
46719;SDS011;32452;51.382;-0.002;2022-09-01T10:14:27;12.43;;;1.80;;
46719;SDS011;32452;51.382;-0.002;2022-09-01T10:17:38;11.38;;;2.42;;
46719;SDS011;32452;51.382;-0.002;2022-09-01T10:20:27;24.73;;;5.22;;
46719;SDS011;32452;51.382;-0.002;2022-09-01T10:23:13;9.10;;;1.90;;
46719;SDS011;32452;51.382;-0.002;2022-09-01T10:26:10;8.32;;;2.20;;
46719;SDS011;32452;51.382;-0.002;2022-09-01T10:29:07;9.13;;;2.00;;
46719;SDS011;32452;51.382;-0.002;2022-09-01T10:32:00;6.40;;;2.03;;
46719;SDS011;32452;51.382;-0.002;2022-09-01T10:35:09;10.38;;;2.13;;
46719;SDS011;32452;51.382;-0.002;2022-09-01T10:38:02;7.13;;;1.90;;
46719;SDS011;32452;51.382;-0.002;2022-09-01T10:40:56;7.63;;;1.90;;
46719;SDS011;32452;51.382;-0.002;2022-09-01T10:44:07;11.70;;;1.90;;
46719;SDS011;32452;51.382;-0.002;2022-09-01T10:46:55;8.05;;;1.80;;
46719;SDS011;32452;51.382;-0.002;2022-09-01T10:55:30;11.30;;;2.17;;
46719;SDS011;32452;51.382;-0.002;2022-09-01T11:07:44;8.85;;;1.45;;
46719;SDS011;32452;51.382;-0.002;2022-09-01T11:10:52;8.40;;;1.63;;
46719;SDS011;32452;51.382;-0.002;2022-09-01T11:13:49;7.25;;;1.40;;
46719;SDS011;32452;51.382;-0.002;2022-09-01T11:16:39;7.15;;;1.88;;
46719;SDS011;32452;51.382;-0.002;2022-09-01T11:19:44;5.07;;;1.55;;
46719;SDS011;32452;51.382;-0.002;2022-09-01T11:29:01;9.10;;;1.50;;
46719;SDS011;32452;51.382;-0.002;2022-09-01T11:31:48;5.60;;;1.65;;
46719;SDS011;32452;51.382;-0.002;2022-09-01T11:34:39;9.48;;;1.80;;
46719;SDS011;32452;51.382;-0.002;2022-09-01T11:37:26;5.85;;;1.85;;
46719;SDS011;32452;51.382;-0.002;2022-09-01T11:40:12;8.05;;;2.15;;
46719;SDS011;32452;51.382;-0.002;2022-09-01T11:43:24;9.18;;;2.28;;
46719;SDS011;32452;51.382;-0.002;2022-09-01T11:46:13;7.22;;;1.60;;
46719;SDS011;32452;51.382;-0.002;2022-09-01T11:49:06;5.25;;;1.85;;
46719;SDS011;32452;51.382;-0.002;2022-09-01T11:52:03;8.93;;;1.70;;
46719;SDS011;32452;51.382;-0.002;2022-09-01T11:54:49;9.43;;;2.10;;
46719;SDS011;32452;51.382;-0.002;2022-09-01T11:57:36;4.75;;;1.58;;
46719;SDS011;32452;51.382;-0.002;2022-09-01T12:00:28;8.27;;;1.92;;
46719;SDS011;32452;51.382;-0.002;2022-09-01T12:03:24;5.22;;;1.58;;
46719;SDS011;32452;51.382;-0.002;2022-09-01T12:06:18;7.60;;;1.88;;
46719;SDS011;32452;51.382;-0.002;2022-09-01T12:09:07;7.85;;;1.67;;
46719;SDS011;32452;51.382;-0.002;2022-09-01T12:11:53;6.70;;;1.48;;
46719;SDS011;32452;51.382;-0.002;2022-09-01T12:14:38;12.55;;;2.72;;
46719;SDS011;32452;51.382;-0.002;2022-09-01T12:17:44;6.22;;;1.88;;
46719;SDS011;32452;51.382;-0.002;2022-09-01T12:20:31;9.13;;;2.35;;
46719;SDS011;32452;51.382;-0.002;2022-09-01T12:26:34;10.02;;;1.88;;
46719;SDS011;32452;51.382;-0.002;2022-09-01T12:29:20;6.72;;;1.70;;
46719;SDS011;32452;51.382;-0.002;2022-09-01T12:32:07;6.68;;;1.50;;
46719;SDS011;32452;51.382;-0.002;2022-09-01T12:35:00;6.90;;;1.52;;
46719;SDS011;32452;51.382;-0.002;2022-09-01T12:41:03;9.32;;;2.05;;
46719;SDS011;32452;51.382;-0.002;2022-09-01T12:47:42;7.00;;;2.28;;
46719;SDS011;32452;51.382;-0.002;2022-09-01T12:50:33;6.80;;;1.90;;
46719;SDS011;32452;51.382;-0.002;2022-09-01T12:53:21;6.72;;;2.03;;
46719;SDS011;32452;51.382;-0.002;2022-09-01T12:56:20;8.93;;;2.45;;
46719;SDS011;32452;51.382;-0.002;2022-09-01T12:59:19;6.80;;;1.60;;
46719;SDS011;32452;51.382;-0.002;2022-09-01T13:02:37;10.98;;;1.80;;
46719;SDS011;32452;51.382;-0.002;2022-09-01T13:05:29;7.43;;;2.00;;
46719;SDS011;32452;51.382;-0.002;2022-09-01T13:08:30;7.15;;;1.75;;
46719;SDS011;32452;51.382;-0.002;2022-09-01T13:11:17;7.03;;;1.70;;
46719;SDS011;32452;51.382;-0.002;2022-09-01T13:14:04;10.20;;;2.33;;
46719;SDS011;32452;51.382;-0.002;2022-09-01T13:16:50;8.35;;;2.03;;
46719;SDS011;32452;51.382;-0.002;2022-09-01T13:19:35;6.60;;;1.95;;
46719;SDS011;32452;51.382;-0.002;2022-09-01T13:22:21;8.35;;;1.95;;
46719;SDS011;32452;51.382;-0.002;2022-09-01T13:25:07;5.72;;;1.75;;
46719;SDS011;32452;51.382;-0.002;2022-09-01T13:27:54;5.72;;;1.65;;
46719;SDS011;32452;51.382;-0.002;2022-09-01T13:30:41;7.88;;;2.40;;
46719;SDS011;32452;51.382;-0.002;2022-09-01T13:33:28;6.60;;;1.90;;
46719;SDS011;32452;51.382;-0.002;2022-09-01T13:36:34;9.20;;;2.53;;
46719;SDS011;32452;51.382;-0.002;2022-09-01T13:39:32;6.38;;;2.03;;
46719;SDS011;32452;51.382;-0.002;2022-09-01T13:42:17;7.13;;;1.90;;
46719;SDS011;32452;51.382;-0.002;2022-09-01T13:45:03;5.75;;;1.90;;
46719;SDS011;32452;51.382;-0.002;2022-09-01T13:47:50;7.22;;;2.20;;
46719;SDS011;32452;51.382;-0.002;2022-09-01T13:50:57;6.95;;;2.00;;
46719;SDS011;32452;51.382;-0.002;2022-09-01T13:54:02;5.75;;;1.85;;
46719;SDS011;32452;51.382;-0.002;2022-09-01T13:56:50;7.90;;;2.47;;
46719;SDS011;32452;51.382;-0.002;2022-09-01T13:59:36;4.10;;;2.33;;
46719;SDS011;32452;51.382;-0.002;2022-09-01T14:02:22;5.57;;;2.28;;
46719;SDS011;32452;51.382;-0.002;2022-09-01T14:05:08;4.07;;;1.92;;
46719;SDS011;32452;51.382;-0.002;2022-09-01T14:07:54;8.35;;;2.03;;
46719;SDS011;32452;51.382;-0.002;2022-09-01T14:10:41;7.60;;;2.25;;
46719;SDS011;32452;51.382;-0.002;2022-09-01T14:13:28;5.50;;;2.28;;
46719;SDS011;32452;51.382;-0.002;2022-09-01T14:16:15;9.13;;;2.83;;
46719;SDS011;32452;51.382;-0.002;2022-09-01T14:19:01;6.10;;;2.03;;
46719;SDS011;32452;51.382;-0.002;2022-09-01T14:21:47;4.75;;;2.17;;
46719;SDS011;32452;51.382;-0.002;2022-09-01T14:24:33;6.13;;;2.42;;
46719;SDS011;32452;51.382;-0.002;2022-09-01T14:27:24;5.30;;;2.47;;
46719;SDS011;32452;51.382;-0.002;2022-09-01T14:30:11;8.30;;;2.65;;
46719;SDS011;32452;51.382;-0.002;2022-09-01T14:33:00;6.35;;;2.85;;
46719;SDS011;32452;51.382;-0.002;2022-09-01T14:35:47;8.65;;;2.85;;
46719;SDS011;32452;51.382;-0.002;2022-09-01T14:38:33;6.43;;;3.22;;
46719;SDS011;32452;51.382;-0.002;2022-09-01T14:41:19;9.07;;;2.63;;
46719;SDS011;32452;51.382;-0.002;2022-09-01T14:44:10;4.45;;;2.25;;
46719;SDS011;32452;51.382;-0.002;2022-09-01T14:46:56;7.38;;;3.08;;
46719;SDS011;32452;51.382;-0.002;2022-09-01T14:49:43;7.25;;;2.40;;
46719;SDS011;32452;51.382;-0.002;2022-09-01T14:52:28;7.35;;;2.67;;
46719;SDS011;32452;51.382;-0.002;2022-09-01T14:55:14;7.05;;;3.10;;
46719;SDS011;32452;51.382;-0.002;2022-09-01T14:58:00;7.32;;;2.67;;
46719;SDS011;32452;51.382;-0.002;2022-09-01T15:00:46;5.03;;;2.42;;
46719;SDS011;32452;51.382;-0.002;2022-09-01T15:03:32;4.28;;;2.40;;
46719;SDS011;32452;51.382;-0.002;2022-09-01T15:06:19;8.15;;;2.78;;
46719;SDS011;32452;51.382;-0.002;2022-09-01T15:09:07;8.00;;;2.55;;
46719;SDS011;32452;51.382;-0.002;2022-09-01T15:11:52;8.40;;;4.07;;
46719;SDS011;32452;51.382;-0.002;2022-09-01T15:14:38;3.00;;;2.38;;
46719;SDS011;32452;51.382;-0.002;2022-09-01T15:17:24;6.28;;;2.85;;
46719;SDS011;32452;51.382;-0.002;2022-09-01T15:20:10;5.93;;;3.03;;
46719;SDS011;32452;51.382;-0.002;2022-09-01T15:23:15;6.43;;;2.88;;
46719;SDS011;32452;51.382;-0.002;2022-09-01T15:26:02;5.55;;;2.95;;
46719;SDS011;32452;51.382;-0.002;2022-09-01T15:28:49;8.57;;;2.97;;
46719;SDS011;32452;51.382;-0.002;2022-09-01T15:31:34;7.22;;;2.33;;
46719;SDS011;32452;51.382;-0.002;2022-09-01T15:34:20;6.05;;;3.00;;
46719;SDS011;32452;51.382;-0.002;2022-09-01T15:37:05;6.38;;;2.92;;
46719;SDS011;32452;51.382;-0.002;2022-09-01T15:39:51;13.18;;;3.55;;
46719;SDS011;32452;51.382;-0.002;2022-09-01T15:42:37;9.70;;;3.38;;
46719;SDS011;32452;51.382;-0.002;2022-09-01T15:45:23;7.78;;;3.22;;
46719;SDS011;32452;51.382;-0.002;2022-09-01T15:48:09;6.43;;;2.90;;
46719;SDS011;32452;51.382;-0.002;2022-09-01T15:51:00;6.38;;;2.92;;
46719;SDS011;32452;51.382;-0.002;2022-09-01T15:54:06;5.65;;;2.90;;
46719;SDS011;32452;51.382;-0.002;2022-09-01T15:56:55;8.32;;;2.55;;
46719;SDS011;32452;51.382;-0.002;2022-09-01T15:59:41;6.43;;;2.80;;
46719;SDS011;32452;51.382;-0.002;2022-09-01T16:02:29;5.22;;;2.53;;
46719;SDS011;32452;51.382;-0.002;2022-09-01T16:05:14;7.03;;;2.50;;
46719;SDS011;32452;51.382;-0.002;2022-09-01T16:08:02;7.35;;;2.90;;
46719;SDS011;32452;51.382;-0.002;2022-09-01T16:10:53;3.28;;;2.20;;
46719;SDS011;32452;51.382;-0.002;2022-09-01T16:13:39;7.35;;;3.05;;
46719;SDS011;32452;51.382;-0.002;2022-09-01T16:16:35;7.28;;;2.67;;
46719;SDS011;32452;51.382;-0.002;2022-09-01T16:19:46;3.95;;;2.42;;
46719;SDS011;32452;51.382;-0.002;2022-09-01T16:22:45;5.43;;;2.70;;
46719;SDS011;32452;51.382;-0.002;2022-09-01T16:25:37;7.50;;;2.50;;
46719;SDS011;32452;51.382;-0.002;2022-09-01T16:28:27;7.80;;;2.60;;
46719;SDS011;32452;51.382;-0.002;2022-09-01T16:31:16;11.05;;;3.10;;
46719;SDS011;32452;51.382;-0.002;2022-09-01T16:34:14;7.03;;;2.72;;
46719;SDS011;32452;51.382;-0.002;2022-09-01T16:39:57;12.10;;;3.47;;
46719;SDS011;32452;51.382;-0.002;2022-09-01T16:52:19;9.23;;;3.42;;
46719;SDS011;32452;51.382;-0.002;2022-09-01T17:07:42;6.57;;;3.08;;
46719;SDS011;32452;51.382;-0.002;2022-09-01T17:16:34;12.18;;;4.40;;
46719;SDS011;32452;51.382;-0.002;2022-09-01T17:19:26;9.38;;;3.00;;
46719;SDS011;32452;51.382;-0.002;2022-09-01T17:22:12;9.57;;;3.60;;
46719;SDS011;32452;51.382;-0.002;2022-09-01T17:25:02;9.80;;;3.22;;
46719;SDS011;32452;51.382;-0.002;2022-09-01T17:28:01;9.32;;;3.42;;
46719;SDS011;32452;51.382;-0.002;2022-09-01T17:30:53;10.10;;;3.45;;
46719;SDS011;32452;51.382;-0.002;2022-09-01T17:33:54;11.68;;;4.18;;
46719;SDS011;32452;51.382;-0.002;2022-09-01T17:55:59;10.60;;;4.55;;
46719;SDS011;32452;51.382;-0.002;2022-09-01T17:59:18;9.55;;;4.07;;
46719;SDS011;32452;51.382;-0.002;2022-09-01T18:05:35;10.82;;;4.80;;
46719;SDS011;32452;51.382;-0.002;2022-09-01T18:08:29;9.32;;;4.18;;
46719;SDS011;32452;51.382;-0.002;2022-09-01T18:11:17;14.25;;;5.53;;
46719;SDS011;32452;51.382;-0.002;2022-09-01T18:14:10;12.87;;;5.97;;
46719;SDS011;32452;51.382;-0.002;2022-09-01T18:20:26;17.48;;;5.35;;
46719;SDS011;32452;51.382;-0.002;2022-09-01T18:23:16;13.93;;;5.45;;
46719;SDS011;32452;51.382;-0.002;2022-09-01T18:26:13;13.95;;;6.03;;
46719;SDS011;32452;51.382;-0.002;2022-09-01T18:29:06;12.05;;;5.47;;
46719;SDS011;32452;51.382;-0.002;2022-09-01T18:44:55;15.07;;;6.75;;
46719;SDS011;32452;51.382;-0.002;2022-09-01T18:47:44;17.10;;;5.65;;